sensor_id;sensor_type;location;lat;lon;timestamp;temperature;humidity
12060;DHT22;6091;51.432;6.880;2023-04-24T00:02:05;23.80;35.20
12060;DHT22;6091;51.432;6.880;2023-04-24T00:04:33;23.80;35.20
12060;DHT22;6091;51.432;6.880;2023-04-24T00:07:01;23.70;35.20
12060;DHT22;6091;51.432;6.880;2023-04-24T00:09:30;23.80;35.30
12060;DHT22;6091;51.432;6.880;2023-04-24T00:11:57;23.70;35.30
12060;DHT22;6091;51.432;6.880;2023-04-24T00:14:24;23.80;35.30
12060;DHT22;6091;51.432;6.880;2023-04-24T00:16:51;23.70;35.20
12060;DHT22;6091;51.432;6.880;2023-04-24T00:21:48;23.80;35.30
12060;DHT22;6091;51.432;6.880;2023-04-24T00:24:18;23.80;35.80
12060;DHT22;6091;51.432;6.880;2023-04-24T00:26:45;23.70;35.30
12060;DHT22;6091;51.432;6.880;2023-04-24T00:29:12;23.80;35.40
12060;DHT22;6091;51.432;6.880;2023-04-24T00:31:39;23.80;35.90
12060;DHT22;6091;51.432;6.880;2023-04-24T00:34:07;23.70;35.30
12060;DHT22;6091;51.432;6.880;2023-04-24T00:36:34;23.80;35.90
12060;DHT22;6091;51.432;6.880;2023-04-24T00:39:04;23.80;35.40
12060;DHT22;6091;51.432;6.880;2023-04-24T00:41:31;23.70;35.30
12060;DHT22;6091;51.432;6.880;2023-04-24T00:43:59;23.70;35.40
12060;DHT22;6091;51.432;6.880;2023-04-24T00:46:26;23.80;35.30
12060;DHT22;6091;51.432;6.880;2023-04-24T00:48:53;23.80;35.90
12060;DHT22;6091;51.432;6.880;2023-04-24T00:51:20;23.70;35.40
12060;DHT22;6091;51.432;6.880;2023-04-24T00:53:47;23.80;35.90
12060;DHT22;6091;51.432;6.880;2023-04-24T00:56:14;23.70;35.40
12060;DHT22;6091;51.432;6.880;2023-04-24T00:58:42;23.70;35.40
12060;DHT22;6091;51.432;6.880;2023-04-24T01:01:10;23.70;35.40
12060;DHT22;6091;51.432;6.880;2023-04-24T01:03:38;21.30;34.00
12060;DHT22;6091;51.432;6.880;2023-04-24T01:06:07;23.70;35.40
12060;DHT22;6091;51.432;6.880;2023-04-24T01:08:36;23.70;35.40
12060;DHT22;6091;51.432;6.880;2023-04-24T01:11:05;23.70;35.50
12060;DHT22;6091;51.432;6.880;2023-04-24T01:13:33;23.70;35.50
12060;DHT22;6091;51.432;6.880;2023-04-24T01:16:01;23.80;35.60
12060;DHT22;6091;51.432;6.880;2023-04-24T01:18:29;23.70;35.50
12060;DHT22;6091;51.432;6.880;2023-04-24T01:21:03;23.70;36.00
12060;DHT22;6091;51.432;6.880;2023-04-24T01:23:34;23.70;35.40
12060;DHT22;6091;51.432;6.880;2023-04-24T01:26:01;23.60;35.40
12060;DHT22;6091;51.432;6.880;2023-04-24T01:28:28;23.60;35.40
12060;DHT22;6091;51.432;6.880;2023-04-24T01:30:58;23.70;36.00
12060;DHT22;6091;51.432;6.880;2023-04-24T01:33:26;23.70;36.10
12060;DHT22;6091;51.432;6.880;2023-04-24T01:35:54;23.70;36.00
12060;DHT22;6091;51.432;6.880;2023-04-24T01:38:21;23.60;35.40
12060;DHT22;6091;51.432;6.880;2023-04-24T01:40:49;23.60;35.50
12060;DHT22;6091;51.432;6.880;2023-04-24T01:43:17;23.70;36.10
12060;DHT22;6091;51.432;6.880;2023-04-24T01:45:45;23.70;36.10
12060;DHT22;6091;51.432;6.880;2023-04-24T01:48:12;23.60;36.00
12060;DHT22;6091;51.432;6.880;2023-04-24T01:50:40;23.70;36.20
12060;DHT22;6091;51.432;6.880;2023-04-24T01:53:07;23.60;36.00
12060;DHT22;6091;51.432;6.880;2023-04-24T01:55:34;23.60;36.00
12060;DHT22;6091;51.432;6.880;2023-04-24T01:58:02;23.50;35.50
12060;DHT22;6091;51.432;6.880;2023-04-24T02:00:29;23.50;35.50
12060;DHT22;6091;51.432;6.880;2023-04-24T02:02:59;23.60;35.60
12060;DHT22;6091;51.432;6.880;2023-04-24T02:05:28;23.60;35.60
12060;DHT22;6091;51.432;6.880;2023-04-24T02:10:23;23.50;35.50
12060;DHT22;6091;51.432;6.880;2023-04-24T02:12:51;23.50;35.50
12060;DHT22;6091;51.432;6.880;2023-04-24T02:15:18;23.60;36.10
12060;DHT22;6091;51.432;6.880;2023-04-24T02:17:45;23.60;36.10
12060;DHT22;6091;51.432;6.880;2023-04-24T02:20:12;23.60;36.20
12060;DHT22;6091;51.432;6.880;2023-04-24T02:22:40;23.50;36.10
12060;DHT22;6091;51.432;6.880;2023-04-24T02:25:07;23.60;36.20
12060;DHT22;6091;51.432;6.880;2023-04-24T02:27:34;23.40;35.50
12060;DHT22;6091;51.432;6.880;2023-04-24T02:30:01;23.50;36.10
12060;DHT22;6091;51.432;6.880;2023-04-24T02:32:29;23.50;36.20
12060;DHT22;6091;51.432;6.880;2023-04-24T02:34:57;23.40;35.60
12060;DHT22;6091;51.432;6.880;2023-04-24T02:37:24;23.50;36.20
12060;DHT22;6091;51.432;6.880;2023-04-24T02:39:51;23.50;36.20
12060;DHT22;6091;51.432;6.880;2023-04-24T02:42:21;23.40;35.60
12060;DHT22;6091;51.432;6.880;2023-04-24T02:44:48;23.50;36.20
12060;DHT22;6091;51.432;6.880;2023-04-24T02:47:15;23.50;36.20
12060;DHT22;6091;51.432;6.880;2023-04-24T02:49:42;23.50;36.20
12060;DHT22;6091;51.432;6.880;2023-04-24T02:52:12;23.40;35.60
12060;DHT22;6091;51.432;6.880;2023-04-24T02:54:39;23.50;35.60
12060;DHT22;6091;51.432;6.880;2023-04-24T02:57:07;23.40;35.70
12060;DHT22;6091;51.432;6.880;2023-04-24T02:59:37;23.40;35.70
12060;DHT22;6091;51.432;6.880;2023-04-24T03:02:04;23.40;36.20
12060;DHT22;6091;51.432;6.880;2023-04-24T03:04:34;23.40;35.70
12060;DHT22;6091;51.432;6.880;2023-04-24T03:07:02;23.30;35.60
12060;DHT22;6091;51.432;6.880;2023-04-24T03:09:29;23.40;35.70
12060;DHT22;6091;51.432;6.880;2023-04-24T03:11:56;23.50;36.30
12060;DHT22;6091;51.432;6.880;2023-04-24T03:14:25;23.40;35.70
12060;DHT22;6091;51.432;6.880;2023-04-24T03:16:51;23.40;35.70
12060;DHT22;6091;51.432;6.880;2023-04-24T03:19:18;23.40;36.20
12060;DHT22;6091;51.432;6.880;2023-04-24T03:21:46;23.40;36.20
12060;DHT22;6091;51.432;6.880;2023-04-24T03:24:13;23.40;35.70
12060;DHT22;6091;51.432;6.880;2023-04-24T03:26:40;23.40;36.30
12060;DHT22;6091;51.432;6.880;2023-04-24T03:29:07;23.30;35.60
12060;DHT22;6091;51.432;6.880;2023-04-24T03:31:34;23.30;35.70
12060;DHT22;6091;51.432;6.880;2023-04-24T03:34:01;23.40;36.30
12060;DHT22;6091;51.432;6.880;2023-04-24T03:36:28;23.40;36.30
12060;DHT22;6091;51.432;6.880;2023-04-24T03:38:55;23.40;36.30
12060;DHT22;6091;51.432;6.880;2023-04-24T03:41:22;23.40;36.30
12060;DHT22;6091;51.432;6.880;2023-04-24T03:43:49;23.40;36.30
12060;DHT22;6091;51.432;6.880;2023-04-24T03:46:16;23.40;35.80
12060;DHT22;6091;51.432;6.880;2023-04-24T03:48:43;23.40;36.30
12060;DHT22;6091;51.432;6.880;2023-04-24T03:51:11;23.40;36.30
12060;DHT22;6091;51.432;6.880;2023-04-24T03:53:38;23.30;35.80
12060;DHT22;6091;51.432;6.880;2023-04-24T03:56:05;23.40;36.40
12060;DHT22;6091;51.432;6.880;2023-04-24T03:58:32;23.30;35.70
12060;DHT22;6091;51.432;6.880;2023-04-24T04:00:59;23.40;35.80
12060;DHT22;6091;51.432;6.880;2023-04-24T04:03:29;23.30;35.80
12060;DHT22;6091;51.432;6.880;2023-04-24T04:05:56;23.40;36.40
12060;DHT22;6091;51.432;6.880;2023-04-24T04:08:26;23.30;36.30
12060;DHT22;6091;51.432;6.880;2023-04-24T04:10:53;23.30;35.80
12060;DHT22;6091;51.432;6.880;2023-04-24T04:13:21;23.30;35.80
12060;DHT22;6091;51.432;6.880;2023-04-24T04:15:48;23.40;36.40
12060;DHT22;6091;51.432;6.880;2023-04-24T04:18:15;23.40;36.40
12060;DHT22;6091;51.432;6.880;2023-04-24T04:20:42;23.30;36.30
12060;DHT22;6091;51.432;6.880;2023-04-24T04:23:10;23.30;35.80
12060;DHT22;6091;51.432;6.880;2023-04-24T04:25:37;23.30;35.80
12060;DHT22;6091;51.432;6.880;2023-04-24T04:28:04;23.30;36.40
12060;DHT22;6091;51.432;6.880;2023-04-24T04:30:31;23.40;36.40
12060;DHT22;6091;51.432;6.880;2023-04-24T04:32:59;23.30;35.80
12060;DHT22;6091;51.432;6.880;2023-04-24T04:35:27;23.30;35.90
12060;DHT22;6091;51.432;6.880;2023-04-24T04:37:54;23.30;35.80
12060;DHT22;6091;51.432;6.880;2023-04-24T04:40:25;23.30;36.40
12060;DHT22;6091;51.432;6.880;2023-04-24T04:42:57;23.40;36.00
12060;DHT22;6091;51.432;6.880;2023-04-24T04:45:24;23.20;35.70
12060;DHT22;6091;51.432;6.880;2023-04-24T04:47:53;23.30;35.90
12060;DHT22;6091;51.432;6.880;2023-04-24T04:50:21;23.30;35.90
12060;DHT22;6091;51.432;6.880;2023-04-24T04:52:49;23.30;35.90
12060;DHT22;6091;51.432;6.880;2023-04-24T04:55:16;23.30;35.90
12060;DHT22;6091;51.432;6.880;2023-04-24T04:57:45;23.30;36.40
12060;DHT22;6091;51.432;6.880;2023-04-24T05:00:15;23.30;36.40
12060;DHT22;6091;51.432;6.880;2023-04-24T05:02:43;23.20;35.80
12060;DHT22;6091;51.432;6.880;2023-04-24T05:05:10;23.30;36.40
12060;DHT22;6091;51.432;6.880;2023-04-24T05:07:38;23.30;35.90
12060;DHT22;6091;51.432;6.880;2023-04-24T05:10:05;23.30;36.40
12060;DHT22;6091;51.432;6.880;2023-04-24T05:12:33;23.30;35.90
12060;DHT22;6091;51.432;6.880;2023-04-24T05:15:01;23.30;35.90
12060;DHT22;6091;51.432;6.880;2023-04-24T05:17:28;23.20;35.90
12060;DHT22;6091;51.432;6.880;2023-04-24T05:19:55;23.20;35.90
12060;DHT22;6091;51.432;6.880;2023-04-24T05:22:23;23.30;35.90
12060;DHT22;6091;51.432;6.880;2023-04-24T05:24:50;23.20;36.40
12060;DHT22;6091;51.432;6.880;2023-04-24T05:27:18;23.20;35.90
12060;DHT22;6091;51.432;6.880;2023-04-24T05:29:45;23.20;35.90
12060;DHT22;6091;51.432;6.880;2023-04-24T05:32:12;23.20;35.90
12060;DHT22;6091;51.432;6.880;2023-04-24T05:34:40;23.30;35.90
12060;DHT22;6091;51.432;6.880;2023-04-24T05:37:07;23.20;36.00
12060;DHT22;6091;51.432;6.880;2023-04-24T05:39:36;23.20;36.50
12060;DHT22;6091;51.432;6.880;2023-04-24T05:42:08;23.20;36.10
12060;DHT22;6091;51.432;6.880;2023-04-24T05:44:36;23.30;36.20
12060;DHT22;6091;51.432;6.880;2023-04-24T05:47:03;23.30;36.30
12060;DHT22;6091;51.432;6.880;2023-04-24T05:49:30;23.40;37.00
12060;DHT22;6091;51.432;6.880;2023-04-24T05:52:00;23.50;36.70
12060;DHT22;6091;51.432;6.880;2023-04-24T05:54:27;23.70;36.70
12060;DHT22;6091;51.432;6.880;2023-04-24T05:56:54;23.80;36.70
12060;DHT22;6091;51.432;6.880;2023-04-24T05:59:22;23.80;37.20
12060;DHT22;6091;51.432;6.880;2023-04-24T06:01:54;24.00;36.70
12060;DHT22;6091;51.432;6.880;2023-04-24T06:04:25;24.20;36.80
12060;DHT22;6091;51.432;6.880;2023-04-24T06:06:56;24.30;36.80
12060;DHT22;6091;51.432;6.880;2023-04-24T06:09:23;24.30;37.30
12060;DHT22;6091;51.432;6.880;2023-04-24T06:11:53;24.50;36.80
12060;DHT22;6091;51.432;6.880;2023-04-24T06:14:21;24.50;37.30
12060;DHT22;6091;51.432;6.880;2023-04-24T06:16:48;24.70;36.80
12060;DHT22;6091;51.432;6.880;2023-04-24T06:19:16;24.60;36.80
12060;DHT22;6091;51.432;6.880;2023-04-24T06:21:43;24.80;36.80
12060;DHT22;6091;51.432;6.880;2023-04-24T06:24:10;25.00;36.80
12060;DHT22;6091;51.432;6.880;2023-04-24T06:26:38;25.10;36.80
12060;DHT22;6091;51.432;6.880;2023-04-24T06:29:06;25.10;36.70
12060;DHT22;6091;51.432;6.880;2023-04-24T06:31:34;25.10;36.60
12060;DHT22;6091;51.432;6.880;2023-04-24T06:34:04;25.20;37.20
12060;DHT22;6091;51.432;6.880;2023-04-24T06:36:32;25.30;36.60
12060;DHT22;6091;51.432;6.880;2023-04-24T06:41:28;25.40;36.60
12060;DHT22;6091;51.432;6.880;2023-04-24T06:43:56;25.50;36.50
12060;DHT22;6091;51.432;6.880;2023-04-24T06:46:27;25.40;36.40
12060;DHT22;6091;51.432;6.880;2023-04-24T06:48:54;25.60;37.00
12060;DHT22;6091;51.432;6.880;2023-04-24T06:51:25;25.70;36.40
12060;DHT22;6091;51.432;6.880;2023-04-24T06:53:53;25.70;36.30
12060;DHT22;6091;51.432;6.880;2023-04-24T06:56:22;25.60;36.20
12060;DHT22;6091;51.432;6.880;2023-04-24T06:58:50;25.70;36.20
12060;DHT22;6091;51.432;6.880;2023-04-24T07:01:18;25.70;36.10
12060;DHT22;6091;51.432;6.880;2023-04-24T07:03:48;25.80;36.10
12060;DHT22;6091;51.432;6.880;2023-04-24T07:06:15;25.90;36.10
12060;DHT22;6091;51.432;6.880;2023-04-24T07:08:45;25.80;36.10
12060;DHT22;6091;51.432;6.880;2023-04-24T07:11:13;25.80;36.00
12060;DHT22;6091;51.432;6.880;2023-04-24T07:13:40;25.80;35.90
12060;DHT22;6091;51.432;6.880;2023-04-24T07:16:08;25.80;36.50
12060;DHT22;6091;51.432;6.880;2023-04-24T07:18:36;25.80;36.50
12060;DHT22;6091;51.432;6.880;2023-04-24T07:21:04;25.70;35.80
12060;DHT22;6091;51.432;6.880;2023-04-24T07:23:31;25.70;35.70
12060;DHT22;6091;51.432;6.880;2023-04-24T07:25:58;25.80;35.80
12060;DHT22;6091;51.432;6.880;2023-04-24T07:28:25;25.80;36.40
12060;DHT22;6091;51.432;6.880;2023-04-24T07:30:52;25.80;35.80
12060;DHT22;6091;51.432;6.880;2023-04-24T07:33:20;25.70;36.30
12060;DHT22;6091;51.432;6.880;2023-04-24T07:35:48;25.80;35.90
12060;DHT22;6091;51.432;6.880;2023-04-24T07:38:16;25.60;35.80
12060;DHT22;6091;51.432;6.880;2023-04-24T07:40:43;25.60;35.90
12060;DHT22;6091;51.432;6.880;2023-04-24T07:43:12;25.60;36.40
12060;DHT22;6091;51.432;6.880;2023-04-24T07:45:40;25.60;35.90
12060;DHT22;6091;51.432;6.880;2023-04-24T07:48:07;25.60;36.50
12060;DHT22;6091;51.432;6.880;2023-04-24T07:50:38;25.60;35.90
12060;DHT22;6091;51.432;6.880;2023-04-24T07:53:07;25.60;35.90
12060;DHT22;6091;51.432;6.880;2023-04-24T07:55:35;25.60;35.90
12060;DHT22;6091;51.432;6.880;2023-04-24T07:58:02;25.60;36.00
12060;DHT22;6091;51.432;6.880;2023-04-24T08:00:29;25.60;36.00
12060;DHT22;6091;51.432;6.880;2023-04-24T08:02:57;25.50;35.90
12060;DHT22;6091;51.432;6.880;2023-04-24T08:05:25;25.50;36.50
12060;DHT22;6091;51.432;6.880;2023-04-24T08:07:54;25.50;36.50
12060;DHT22;6091;51.432;6.880;2023-04-24T08:10:22;25.50;36.10
12060;DHT22;6091;51.432;6.880;2023-04-24T08:12:50;25.50;36.10
12060;DHT22;6091;51.432;6.880;2023-04-24T08:15:20;25.50;36.20
12060;DHT22;6091;51.432;6.880;2023-04-24T08:17:48;25.50;36.70
12060;DHT22;6091;51.432;6.880;2023-04-24T08:20:17;25.40;36.10
12060;DHT22;6091;51.432;6.880;2023-04-24T08:22:45;25.50;36.20
12060;DHT22;6091;51.432;6.880;2023-04-24T08:25:14;25.40;36.70
12060;DHT22;6091;51.432;6.880;2023-04-24T08:27:43;25.40;36.20
12060;DHT22;6091;51.432;6.880;2023-04-24T08:30:11;25.50;36.30
12060;DHT22;6091;51.432;6.880;2023-04-24T08:32:39;25.40;36.30
12060;DHT22;6091;51.432;6.880;2023-04-24T08:35:07;25.40;36.30
12060;DHT22;6091;51.432;6.880;2023-04-24T08:37:36;25.40;36.30
12060;DHT22;6091;51.432;6.880;2023-04-24T08:40:13;25.50;36.30
12060;DHT22;6091;51.432;6.880;2023-04-24T08:42:42;25.40;36.90
12060;DHT22;6091;51.432;6.880;2023-04-24T08:45:13;25.40;36.20
12060;DHT22;6091;51.432;6.880;2023-04-24T08:47:41;25.40;36.20
12060;DHT22;6091;51.432;6.880;2023-04-24T08:50:09;25.40;36.20
12060;DHT22;6091;51.432;6.880;2023-04-24T08:52:37;25.40;36.70
12060;DHT22;6091;51.432;6.880;2023-04-24T08:55:05;25.30;36.10
12060;DHT22;6091;51.432;6.880;2023-04-24T08:57:33;25.40;36.10
12060;DHT22;6091;51.432;6.880;2023-04-24T09:05:04;25.40;36.00
12060;DHT22;6091;51.432;6.880;2023-04-24T09:07:35;25.50;36.60
12060;DHT22;6091;51.432;6.880;2023-04-24T09:10:03;25.50;36.50
12060;DHT22;6091;51.432;6.880;2023-04-24T09:12:34;25.40;35.90
12060;DHT22;6091;51.432;6.880;2023-04-24T09:15:02;25.40;35.80
12060;DHT22;6091;51.432;6.880;2023-04-24T09:17:31;25.50;36.40
12060;DHT22;6091;51.432;6.880;2023-04-24T09:20:00;25.40;35.80
12060;DHT22;6091;51.432;6.880;2023-04-24T09:22:30;25.40;35.80
12060;DHT22;6091;51.432;6.880;2023-04-24T09:25:07;25.40;36.30
12060;DHT22;6091;51.432;6.880;2023-04-24T09:27:35;25.40;35.70
12060;DHT22;6091;51.432;6.880;2023-04-24T09:30:03;25.30;35.70
12060;DHT22;6091;51.432;6.880;2023-04-24T09:32:34;25.30;35.70
12060;DHT22;6091;51.432;6.880;2023-04-24T09:35:13;25.30;35.70
12060;DHT22;6091;51.432;6.880;2023-04-24T09:37:46;25.30;35.60
12060;DHT22;6091;51.432;6.880;2023-04-24T09:42:56;25.20;35.40
12060;DHT22;6091;51.432;6.880;2023-04-24T09:45:28;25.20;35.20
12060;DHT22;6091;51.432;6.880;2023-04-24T09:48:02;25.30;35.70
12060;DHT22;6091;51.432;6.880;2023-04-24T09:50:32;25.20;35.20
12060;DHT22;6091;51.432;6.880;2023-04-24T09:53:05;25.20;35.40
12060;DHT22;6091;51.432;6.880;2023-04-24T09:55:45;25.40;35.50
12060;DHT22;6091;51.432;6.880;2023-04-24T09:58:17;25.10;36.00
12060;DHT22;6091;51.432;6.880;2023-04-24T10:00:45;25.00;35.50
12060;DHT22;6091;51.432;6.880;2023-04-24T10:03:13;25.00;35.70
12060;DHT22;6091;51.432;6.880;2023-04-24T10:05:46;25.00;35.80
12060;DHT22;6091;51.432;6.880;2023-04-24T10:08:14;24.90;35.90
12060;DHT22;6091;51.432;6.880;2023-04-24T10:10:42;25.00;36.60
12060;DHT22;6091;51.432;6.880;2023-04-24T10:13:12;24.90;36.10
12060;DHT22;6091;51.432;6.880;2023-04-24T10:15:42;25.00;36.20
12060;DHT22;6091;51.432;6.880;2023-04-24T10:18:10;24.80;36.20
12060;DHT22;6091;51.432;6.880;2023-04-24T10:20:40;24.90;36.40
12060;DHT22;6091;51.432;6.880;2023-04-24T10:25:37;24.90;36.50
12060;DHT22;6091;51.432;6.880;2023-04-24T10:28:04;24.90;37.20
12060;DHT22;6091;51.432;6.880;2023-04-24T10:30:35;24.90;36.60
12060;DHT22;6091;51.432;6.880;2023-04-24T10:33:06;24.90;36.80
12060;DHT22;6091;51.432;6.880;2023-04-24T10:35:44;24.90;36.70
12060;DHT22;6091;51.432;6.880;2023-04-24T10:38:23;25.00;37.40
12060;DHT22;6091;51.432;6.880;2023-04-24T10:41:10;25.00;36.70
12060;DHT22;6091;51.432;6.880;2023-04-24T10:43:43;25.00;37.50
12060;DHT22;6091;51.432;6.880;2023-04-24T10:46:11;24.90;36.90
12060;DHT22;6091;51.432;6.880;2023-04-24T10:48:53;24.90;36.80
12060;DHT22;6091;51.432;6.880;2023-04-24T10:51:42;25.00;37.50
12060;DHT22;6091;51.432;6.880;2023-04-24T10:54:23;24.90;36.70
12060;DHT22;6091;51.432;6.880;2023-04-24T10:56:52;24.90;36.90
12060;DHT22;6091;51.432;6.880;2023-04-24T10:59:34;24.80;36.90
12060;DHT22;6091;51.432;6.880;2023-04-24T11:02:07;24.90;37.10
12060;DHT22;6091;51.432;6.880;2023-04-24T11:04:35;24.90;37.00
12060;DHT22;6091;51.432;6.880;2023-04-24T11:07:03;24.90;36.90
12060;DHT22;6091;51.432;6.880;2023-04-24T11:09:31;25.00;37.60
12060;DHT22;6091;51.432;6.880;2023-04-24T11:17:31;24.90;37.30
12060;DHT22;6091;51.432;6.880;2023-04-24T11:20:06;25.00;37.90
12060;DHT22;6091;51.432;6.880;2023-04-24T11:22:54;25.00;37.20
12060;DHT22;6091;51.432;6.880;2023-04-24T11:25:24;25.00;37.10
12060;DHT22;6091;51.432;6.880;2023-04-24T11:28:04;24.90;37.90
12060;DHT22;6091;51.432;6.880;2023-04-24T11:30:32;24.90;37.70
12060;DHT22;6091;51.432;6.880;2023-04-24T11:33:07;24.90;37.60
12060;DHT22;6091;51.432;6.880;2023-04-24T11:35:40;25.00;37.40
12060;DHT22;6091;51.432;6.880;2023-04-24T11:38:07;25.00;37.40
12060;DHT22;6091;51.432;6.880;2023-04-24T11:40:39;25.00;37.30
12060;DHT22;6091;51.432;6.880;2023-04-24T11:43:09;25.00;37.40
12060;DHT22;6091;51.432;6.880;2023-04-24T11:45:48;25.00;37.40
12060;DHT22;6091;51.432;6.880;2023-04-24T11:48:19;25.00;37.40
12060;DHT22;6091;51.432;6.880;2023-04-24T11:50:50;25.00;37.50
12060;DHT22;6091;51.432;6.880;2023-04-24T11:53:22;25.10;37.50
12060;DHT22;6091;51.432;6.880;2023-04-24T11:55:49;25.00;37.50
12060;DHT22;6091;51.432;6.880;2023-04-24T11:58:21;25.00;37.50
12060;DHT22;6091;51.432;6.880;2023-04-24T12:00:56;25.10;37.60
12060;DHT22;6091;51.432;6.880;2023-04-24T12:03:27;25.20;37.60
12060;DHT22;6091;51.432;6.880;2023-04-24T12:06:06;25.10;37.40
12060;DHT22;6091;51.432;6.880;2023-04-24T12:11:06;25.20;37.50
12060;DHT22;6091;51.432;6.880;2023-04-24T12:13:34;25.20;38.00
12060;DHT22;6091;51.432;6.880;2023-04-24T12:16:05;25.30;37.50
12060;DHT22;6091;51.432;6.880;2023-04-24T12:18:41;25.30;37.50
12060;DHT22;6091;51.432;6.880;2023-04-24T12:21:21;25.40;37.50
12060;DHT22;6091;51.432;6.880;2023-04-24T12:23:49;25.30;37.20
12060;DHT22;6091;51.432;6.880;2023-04-24T12:26:18;25.20;37.10
12060;DHT22;6091;51.432;6.880;2023-04-24T12:28:48;25.30;37.00
12060;DHT22;6091;51.432;6.880;2023-04-24T12:33:44;25.20;36.90
12060;DHT22;6091;51.432;6.880;2023-04-24T12:38:46;25.10;36.90
12060;DHT22;6091;51.432;6.880;2023-04-24T12:41:19;25.10;36.90
12060;DHT22;6091;51.432;6.880;2023-04-24T12:43:53;25.10;37.40
12060;DHT22;6091;51.432;6.880;2023-04-24T12:46:21;25.10;36.90
12060;DHT22;6091;51.432;6.880;2023-04-24T12:48:48;25.00;36.80
12060;DHT22;6091;51.432;6.880;2023-04-24T12:51:16;25.00;36.80
12060;DHT22;6091;51.432;6.880;2023-04-24T12:53:43;25.10;36.90
12060;DHT22;6091;51.432;6.880;2023-04-24T12:56:13;25.10;36.90
12060;DHT22;6091;51.432;6.880;2023-04-24T12:58:40;25.00;37.40
12060;DHT22;6091;51.432;6.880;2023-04-24T13:01:07;25.00;36.90
12060;DHT22;6091;51.432;6.880;2023-04-24T13:03:35;25.00;37.40
12060;DHT22;6091;51.432;6.880;2023-04-24T13:06:02;25.00;36.90
12060;DHT22;6091;51.432;6.880;2023-04-24T13:08:29;25.00;36.80
12060;DHT22;6091;51.432;6.880;2023-04-24T13:10:57;25.00;37.30
12060;DHT22;6091;51.432;6.880;2023-04-24T13:13:24;25.10;36.80
12060;DHT22;6091;51.432;6.880;2023-04-24T13:15:51;25.00;36.70
12060;DHT22;6091;51.432;6.880;2023-04-24T13:20:46;25.10;36.70
12060;DHT22;6091;51.432;6.880;2023-04-24T13:23:14;25.00;36.70
12060;DHT22;6091;51.432;6.880;2023-04-24T13:25:42;25.10;37.20
12060;DHT22;6091;51.432;6.880;2023-04-24T13:28:11;25.00;36.70
12060;DHT22;6091;51.432;6.880;2023-04-24T13:30:40;24.90;36.60
12060;DHT22;6091;51.432;6.880;2023-04-24T13:33:09;25.00;36.70
12060;DHT22;6091;51.432;6.880;2023-04-24T13:35:37;24.80;36.50
12060;DHT22;6091;51.432;6.880;2023-04-24T13:38:04;24.90;37.10
12060;DHT22;6091;51.432;6.880;2023-04-24T13:40:33;25.00;37.20
12060;DHT22;6091;51.432;6.880;2023-04-24T13:43:00;24.90;36.70
12060;DHT22;6091;51.432;6.880;2023-04-24T13:45:28;24.90;37.20
12060;DHT22;6091;51.432;6.880;2023-04-24T13:47:56;24.90;36.70
12060;DHT22;6091;51.432;6.880;2023-04-24T13:50:23;24.90;37.20
12060;DHT22;6091;51.432;6.880;2023-04-24T13:52:53;24.90;36.70
12060;DHT22;6091;51.432;6.880;2023-04-24T13:55:21;24.80;36.70
12060;DHT22;6091;51.432;6.880;2023-04-24T13:57:48;24.80;36.60
12060;DHT22;6091;51.432;6.880;2023-04-24T14:00:16;24.80;36.70
12060;DHT22;6091;51.432;6.880;2023-04-24T14:02:47;24.90;36.70
12060;DHT22;6091;51.432;6.880;2023-04-24T14:05:16;24.90;37.30
12060;DHT22;6091;51.432;6.880;2023-04-24T14:07:43;24.90;36.70
12060;DHT22;6091;51.432;6.880;2023-04-24T14:10:11;25.00;36.80
12060;DHT22;6091;51.432;6.880;2023-04-24T14:12:41;24.90;36.70
12060;DHT22;6091;51.432;6.880;2023-04-24T14:15:10;24.90;36.70
12060;DHT22;6091;51.432;6.880;2023-04-24T14:17:41;24.90;36.70
12060;DHT22;6091;51.432;6.880;2023-04-24T14:20:09;24.90;36.60
12060;DHT22;6091;51.432;6.880;2023-04-24T14:22:40;24.90;36.60
12060;DHT22;6091;51.432;6.880;2023-04-24T14:25:07;24.90;36.50
12060;DHT22;6091;51.432;6.880;2023-04-24T14:27:35;24.90;37.10
12060;DHT22;6091;51.432;6.880;2023-04-24T14:30:03;24.90;36.50
12060;DHT22;6091;51.432;6.880;2023-04-24T14:32:31;24.90;36.50
12060;DHT22;6091;51.432;6.880;2023-04-24T14:34:58;25.00;36.50
12060;DHT22;6091;51.432;6.880;2023-04-24T14:37:26;24.90;36.50
12060;DHT22;6091;51.432;6.880;2023-04-24T14:39:53;24.90;37.00
12060;DHT22;6091;51.432;6.880;2023-04-24T14:42:37;24.90;36.40
12060;DHT22;6091;51.432;6.880;2023-04-24T14:45:04;24.80;36.30
12060;DHT22;6091;51.432;6.880;2023-04-24T14:47:34;24.80;36.40
12060;DHT22;6091;51.432;6.880;2023-04-24T14:50:04;24.80;36.40
12060;DHT22;6091;51.432;6.880;2023-04-24T14:52:32;24.80;36.90
12060;DHT22;6091;51.432;6.880;2023-04-24T14:54:59;24.80;37.00
12060;DHT22;6091;51.432;6.880;2023-04-24T14:57:26;24.70;36.40
12060;DHT22;6091;51.432;6.880;2023-04-24T14:59:53;24.70;36.40
12060;DHT22;6091;51.432;6.880;2023-04-24T15:02:20;24.60;36.40
12060;DHT22;6091;51.432;6.880;2023-04-24T15:04:48;24.70;37.00
12060;DHT22;6091;51.432;6.880;2023-04-24T15:07:15;24.60;36.50
12060;DHT22;6091;51.432;6.880;2023-04-24T15:09:42;24.60;36.50
12060;DHT22;6091;51.432;6.880;2023-04-24T15:12:12;24.60;37.00
12060;DHT22;6091;51.432;6.880;2023-04-24T15:17:07;24.60;36.60
12060;DHT22;6091;51.432;6.880;2023-04-24T15:19:34;24.70;36.70
12060;DHT22;6091;51.432;6.880;2023-04-24T15:22:01;24.70;36.70
12060;DHT22;6091;51.432;6.880;2023-04-24T15:24:29;25.40;37.20
12060;DHT22;6091;51.432;6.880;2023-04-24T15:26:56;24.60;36.60
12060;DHT22;6091;51.432;6.880;2023-04-24T15:29:26;24.70;37.20
12060;DHT22;6091;51.432;6.880;2023-04-24T15:31:54;24.80;37.30
12060;DHT22;6091;51.432;6.880;2023-04-24T15:34:24;24.80;37.00
12060;DHT22;6091;51.432;6.880;2023-04-24T15:36:51;24.70;36.90
12060;DHT22;6091;51.432;6.880;2023-04-24T15:39:22;25.00;37.00
12060;DHT22;6091;51.432;6.880;2023-04-24T15:41:52;25.10;37.00
12060;DHT22;6091;51.432;6.880;2023-04-24T15:44:23;25.00;36.90
12060;DHT22;6091;51.432;6.880;2023-04-24T15:46:50;25.20;36.80
12060;DHT22;6091;51.432;6.880;2023-04-24T15:49:18;25.20;36.60
12060;DHT22;6091;51.432;6.880;2023-04-24T15:51:45;25.30;36.60
12060;DHT22;6091;51.432;6.880;2023-04-24T15:54:13;25.30;36.60
12060;DHT22;6091;51.432;6.880;2023-04-24T15:56:40;25.30;36.50
12060;DHT22;6091;51.432;6.880;2023-04-24T15:59:07;25.30;36.50
12060;DHT22;6091;51.432;6.880;2023-04-24T16:01:34;25.40;37.00
12060;DHT22;6091;51.432;6.880;2023-04-24T16:06:29;25.30;36.40
12060;DHT22;6091;51.432;6.880;2023-04-24T16:08:57;25.40;37.00
12060;DHT22;6091;51.432;6.880;2023-04-24T16:11:27;25.40;36.70
12060;DHT22;6091;51.432;6.880;2023-04-24T16:13:54;25.40;36.80
12060;DHT22;6091;51.432;6.880;2023-04-24T16:16:21;25.40;37.40
12060;DHT22;6091;51.432;6.880;2023-04-24T16:18:50;25.40;36.90
12060;DHT22;6091;51.432;6.880;2023-04-24T16:21:20;25.50;37.00
12060;DHT22;6091;51.432;6.880;2023-04-24T16:23:47;25.70;37.00
12060;DHT22;6091;51.432;6.880;2023-04-24T16:26:16;25.70;38.10
12060;DHT22;6091;51.432;6.880;2023-04-24T16:28:44;25.90;36.90
12060;DHT22;6091;51.432;6.880;2023-04-24T16:31:11;25.90;36.80
12060;DHT22;6091;51.432;6.880;2023-04-24T16:33:38;26.00;37.30